createdAt,value
2019-03-21T04:44:09.782Z,10.90
2019-03-21T04:46:41.092Z,5.10
2019-03-21T04:49:12.271Z,4.70
2019-03-21T04:51:43.372Z,4.70
2019-03-21T04:54:14.698Z,4.70
2019-03-21T04:56:46.339Z,4.70
2019-03-21T05:04:18.837Z,4.70
2019-03-21T05:06:50.471Z,4.70
2019-03-21T05:09:21.809Z,4.70
2019-03-21T05:11:53.400Z,4.70
2019-03-21T05:14:24.495Z,4.70
2019-03-21T05:19:25.936Z,4.70
2019-03-21T05:24:27.259Z,4.60
2019-03-21T05:26:59.039Z,4.70
2019-03-21T05:29:30.653Z,4.70
2019-03-21T05:32:03.786Z,4.70
2019-03-21T05:34:35.144Z,4.80
2019-03-21T05:37:07.317Z,4.80
2019-03-21T05:42:14.052Z,4.80
2019-03-21T05:49:46.872Z,5.40
2019-03-21T05:52:18.524Z,4.80
2019-03-21T05:57:20.336Z,4.80
2019-03-21T05:59:51.927Z,4.80
2019-03-21T06:02:23.459Z,4.80
2019-03-21T06:07:51.177Z,4.80
2019-03-21T06:10:22.513Z,4.60
2019-03-21T06:12:53.921Z,4.70
2019-03-21T06:15:27.564Z,4.70
2019-03-21T06:20:58.813Z,4.60
2019-03-21T06:23:53.730Z,4.70
2019-03-21T06:26:50.428Z,4.70
2019-03-21T06:29:22.160Z,4.80
2019-03-21T06:31:53.301Z,4.80
2019-03-21T06:34:24.486Z,4.90
2019-03-21T06:36:55.864Z,5.00
2019-03-21T06:39:27.409Z,5.00
2019-03-21T06:41:58.515Z,5.10
2019-03-21T06:44:30.125Z,5.90
2019-03-21T06:47:01.705Z,5.20
2019-03-21T06:49:32.910Z,5.50
2019-03-21T06:52:04.120Z,5.30
2019-03-21T06:54:55.118Z,5.40
2019-03-21T06:57:26.696Z,5.40
2019-03-21T06:59:57.803Z,5.30
2019-03-21T07:02:28.926Z,5.30
2019-03-21T07:05:00.362Z,5.30
2019-03-21T07:10:02.425Z,5.30
2019-03-21T07:12:35.320Z,5.30
2019-03-21T07:15:07.765Z,5.40
2019-03-21T07:17:41.898Z,5.30
2019-03-21T07:20:13.589Z,5.40
2019-03-21T07:22:45.623Z,5.50
2019-03-21T07:25:18.541Z,5.20
2019-03-21T07:27:53.378Z,5.50
2019-03-21T07:30:26.936Z,5.60
2019-03-21T07:32:58.345Z,5.80
2019-03-21T07:35:29.531Z,5.90
2019-03-21T07:38:01.116Z,6.00
2019-03-21T07:40:32.313Z,6.10
2019-03-21T07:43:03.721Z,6.20
2019-03-21T07:45:35.196Z,6.30
2019-03-21T07:48:06.786Z,6.30
2019-03-21T07:50:38.246Z,6.50
2019-03-21T07:53:09.331Z,6.50
2019-03-21T07:55:41.670Z,6.60
2019-03-21T07:58:13.212Z,6.60
2019-03-21T08:00:44.292Z,6.70
2019-03-21T08:03:15.606Z,6.80
2019-03-21T08:05:48.251Z,6.90
2019-03-21T08:08:19.671Z,7.00
2019-03-21T08:10:51.209Z,7.10
2019-03-21T08:13:22.367Z,7.10
2019-03-21T08:15:53.725Z,7.20
2019-03-21T08:18:24.944Z,7.30
2019-03-21T08:20:59.782Z,7.40
2019-03-21T08:23:28.994Z,7.50
2019-03-21T08:26:00.131Z,7.50
2019-03-21T08:28:31.214Z,7.60
2019-03-21T08:31:26.946Z,7.70
2019-03-21T08:33:59.803Z,7.70
2019-03-21T08:36:31.650Z,7.80
2019-03-21T08:39:02.666Z,7.80
2019-03-21T08:41:33.786Z,7.50
2019-03-21T08:44:05.104Z,7.80
2019-03-21T08:46:36.598Z,7.80
2019-03-21T08:49:07.828Z,7.90
2019-03-21T08:51:38.916Z,8.00
2019-03-21T08:54:09.961Z,8.10
2019-03-21T08:56:41.100Z,8.30
2019-03-21T08:59:12.844Z,8.50
2019-03-21T09:01:44.622Z,9.10
2019-03-21T09:04:16.074Z,8.80
2019-03-21T09:06:47.246Z,8.90
2019-03-21T09:09:18.412Z,9.00
2019-03-21T09:11:51.307Z,9.10
2019-03-21T09:14:23.561Z,9.20
2019-03-21T09:16:54.672Z,9.30
2019-03-21T09:19:25.824Z,9.40
2019-03-21T09:21:56.900Z,9.50
2019-03-21T09:24:35.467Z,9.50
2019-03-21T09:27:11.810Z,9.70
2019-03-21T09:29:53.212Z,9.80
2019-03-21T09:32:17.321Z,9.90
2019-03-21T09:34:48.719Z,9.90
2019-03-21T09:37:21.827Z,10.00
2019-03-21T09:39:53.824Z,10.10
2019-03-21T09:42:27.416Z,10.20
2019-03-21T09:44:59.242Z,10.30
2019-03-21T09:47:30.496Z,10.40
2019-03-21T09:50:01.896Z,10.50
2019-03-21T09:52:33.135Z,10.60
2019-03-21T09:55:04.662Z,10.70
2019-03-21T09:57:36.701Z,10.80
2019-03-21T10:00:09.125Z,10.90
2019-03-21T10:02:42.749Z,11.00
2019-03-21T10:05:14.284Z,11.10
2019-03-21T10:07:46.451Z,11.30
2019-03-21T10:10:27.032Z,11.40
2019-03-21T10:13:00.639Z,11.50
2019-03-21T10:15:32.217Z,11.70
2019-03-21T10:18:05.132Z,11.80
2019-03-21T10:20:37.125Z,11.90
2019-03-21T10:23:11.127Z,12.00
2019-03-21T10:25:42.361Z,11.90
2019-03-21T10:28:16.687Z,12.00
2019-03-21T10:30:48.880Z,12.30
2019-03-21T10:33:19.930Z,12.60
